sensor_id;sensor_type;location;lat;lon;timestamp;temperature;humidity
8105;DHT22;4095;48.942;9.104;2024-01-27T00:01:34;5.20;99.90
8105;DHT22;4095;48.942;9.104;2024-01-27T00:04:00;5.20;99.90
8105;DHT22;4095;48.942;9.104;2024-01-27T00:06:26;5.10;99.90
8105;DHT22;4095;48.942;9.104;2024-01-27T00:08:51;5.00;99.90
8105;DHT22;4095;48.942;9.104;2024-01-27T00:11:17;5.00;99.90
8105;DHT22;4095;48.942;9.104;2024-01-27T00:13:42;5.00;99.90
8105;DHT22;4095;48.942;9.104;2024-01-27T00:16:09;5.00;99.90
8105;DHT22;4095;48.942;9.104;2024-01-27T00:18:38;5.00;99.90
8105;DHT22;4095;48.942;9.104;2024-01-27T00:21:07;5.10;99.90
8105;DHT22;4095;48.942;9.104;2024-01-27T00:23:33;5.00;99.90
8105;DHT22;4095;48.942;9.104;2024-01-27T00:26:00;5.00;99.90
8105;DHT22;4095;48.942;9.104;2024-01-27T00:28:25;5.00;99.90
8105;DHT22;4095;48.942;9.104;2024-01-27T00:30:51;5.00;99.90
8105;DHT22;4095;48.942;9.104;2024-01-27T00:33:16;5.00;99.90
8105;DHT22;4095;48.942;9.104;2024-01-27T00:35:42;5.00;99.90
8105;DHT22;4095;48.942;9.104;2024-01-27T00:38:08;5.00;99.90
8105;DHT22;4095;48.942;9.104;2024-01-27T00:40:34;5.00;99.90
8105;DHT22;4095;48.942;9.104;2024-01-27T00:42:59;4.90;99.90
8105;DHT22;4095;48.942;9.104;2024-01-27T00:45:27;4.80;99.90
8105;DHT22;4095;48.942;9.104;2024-01-27T00:47:54;4.80;99.90
8105;DHT22;4095;48.942;9.104;2024-01-27T00:50:20;4.80;99.90
8105;DHT22;4095;48.942;9.104;2024-01-27T00:52:46;4.80;99.90
8105;DHT22;4095;48.942;9.104;2024-01-27T00:55:11;4.80;99.90
8105;DHT22;4095;48.942;9.104;2024-01-27T00:57:37;4.80;99.90
8105;DHT22;4095;48.942;9.104;2024-01-27T01:00:06;4.80;99.90
8105;DHT22;4095;48.942;9.104;2024-01-27T01:02:32;4.80;99.90
8105;DHT22;4095;48.942;9.104;2024-01-27T01:04:58;4.80;99.90
8105;DHT22;4095;48.942;9.104;2024-01-27T01:07:23;4.70;99.90
8105;DHT22;4095;48.942;9.104;2024-01-27T01:09:49;4.60;99.90
8105;DHT22;4095;48.942;9.104;2024-01-27T01:12:14;4.60;99.90
8105;DHT22;4095;48.942;9.104;2024-01-27T01:14:41;4.60;99.90
8105;DHT22;4095;48.942;9.104;2024-01-27T01:17:06;4.70;99.90
8105;DHT22;4095;48.942;9.104;2024-01-27T01:19:32;4.70;99.90
8105;DHT22;4095;48.942;9.104;2024-01-27T01:21:57;4.70;99.90
8105;DHT22;4095;48.942;9.104;2024-01-27T01:24:23;4.70;99.90
8105;DHT22;4095;48.942;9.104;2024-01-27T01:26:48;4.60;99.90
8105;DHT22;4095;48.942;9.104;2024-01-27T01:29:14;4.60;99.90
8105;DHT22;4095;48.942;9.104;2024-01-27T01:31:44;4.60;99.90
8105;DHT22;4095;48.942;9.104;2024-01-27T01:34:10;4.50;99.90
8105;DHT22;4095;48.942;9.104;2024-01-27T01:36:35;4.50;99.90
8105;DHT22;4095;48.942;9.104;2024-01-27T01:39:01;4.40;99.90
8105;DHT22;4095;48.942;9.104;2024-01-27T01:41:26;4.40;99.90
8105;DHT22;4095;48.942;9.104;2024-01-27T01:43:52;4.50;99.90
8105;DHT22;4095;48.942;9.104;2024-01-27T01:46:18;4.50;99.90
8105;DHT22;4095;48.942;9.104;2024-01-27T01:48:44;4.50;99.90
8105;DHT22;4095;48.942;9.104;2024-01-27T01:51:10;4.50;99.90
8105;DHT22;4095;48.942;9.104;2024-01-27T01:53:36;4.40;99.90
8105;DHT22;4095;48.942;9.104;2024-01-27T01:56:02;4.40;99.90
8105;DHT22;4095;48.942;9.104;2024-01-27T01:58:28;4.40;99.90
8105;DHT22;4095;48.942;9.104;2024-01-27T02:01:02;4.40;99.90
8105;DHT22;4095;48.942;9.104;2024-01-27T02:03:27;4.50;99.90
8105;DHT22;4095;48.942;9.104;2024-01-27T02:05:54;4.50;99.90
8105;DHT22;4095;48.942;9.104;2024-01-27T02:08:19;4.50;99.90
8105;DHT22;4095;48.942;9.104;2024-01-27T02:10:45;4.50;99.90
8105;DHT22;4095;48.942;9.104;2024-01-27T02:13:18;4.50;99.90
8105;DHT22;4095;48.942;9.104;2024-01-27T02:15:44;4.50;99.90
8105;DHT22;4095;48.942;9.104;2024-01-27T02:18:09;4.60;99.90
8105;DHT22;4095;48.942;9.104;2024-01-27T02:20:35;4.60;99.90
8105;DHT22;4095;48.942;9.104;2024-01-27T02:23:00;4.50;99.90
8105;DHT22;4095;48.942;9.104;2024-01-27T02:25:30;4.50;99.90
8105;DHT22;4095;48.942;9.104;2024-01-27T02:27:55;4.50;99.90
8105;DHT22;4095;48.942;9.104;2024-01-27T02:30:21;4.50;99.90
8105;DHT22;4095;48.942;9.104;2024-01-27T02:32:46;4.50;99.90
8105;DHT22;4095;48.942;9.104;2024-01-27T02:35:12;4.40;99.90
8105;DHT22;4095;48.942;9.104;2024-01-27T02:37:39;4.40;99.90
8105;DHT22;4095;48.942;9.104;2024-01-27T02:40:06;4.40;99.90
8105;DHT22;4095;48.942;9.104;2024-01-27T02:42:32;4.40;99.90
8105;DHT22;4095;48.942;9.104;2024-01-27T02:44:58;4.40;99.90
8105;DHT22;4095;48.942;9.104;2024-01-27T02:47:23;4.40;99.90
8105;DHT22;4095;48.942;9.104;2024-01-27T02:49:49;4.40;99.90
8105;DHT22;4095;48.942;9.104;2024-01-27T02:52:14;4.40;99.90
8105;DHT22;4095;48.942;9.104;2024-01-27T02:54:40;4.50;99.90
8105;DHT22;4095;48.942;9.104;2024-01-27T02:57:06;4.40;99.90
8105;DHT22;4095;48.942;9.104;2024-01-27T02:59:31;4.40;99.90
8105;DHT22;4095;48.942;9.104;2024-01-27T03:01:56;4.30;99.90
8105;DHT22;4095;48.942;9.104;2024-01-27T03:04:22;4.20;99.90
8105;DHT22;4095;48.942;9.104;2024-01-27T03:06:48;4.10;99.90
8105;DHT22;4095;48.942;9.104;2024-01-27T03:09:13;4.20;99.90
8105;DHT22;4095;48.942;9.104;2024-01-27T03:11:39;4.20;99.90
8105;DHT22;4095;48.942;9.104;2024-01-27T03:14:04;4.10;99.90
8105;DHT22;4095;48.942;9.104;2024-01-27T03:16:30;4.10;99.90
8105;DHT22;4095;48.942;9.104;2024-01-27T03:18:55;4.10;99.90
8105;DHT22;4095;48.942;9.104;2024-01-27T03:21:21;4.10;99.90
8105;DHT22;4095;48.942;9.104;2024-01-27T03:23:46;4.10;99.90
8105;DHT22;4095;48.942;9.104;2024-01-27T03:26:12;4.10;99.90
8105;DHT22;4095;48.942;9.104;2024-01-27T03:28:37;4.10;99.90
8105;DHT22;4095;48.942;9.104;2024-01-27T03:31:03;4.10;99.90
8105;DHT22;4095;48.942;9.104;2024-01-27T03:33:28;4.00;99.90
8105;DHT22;4095;48.942;9.104;2024-01-27T03:35:55;3.90;99.90
8105;DHT22;4095;48.942;9.104;2024-01-27T03:38:21;3.90;99.90
8105;DHT22;4095;48.942;9.104;2024-01-27T03:40:47;4.00;99.90
8105;DHT22;4095;48.942;9.104;2024-01-27T03:43:13;4.00;99.90
8105;DHT22;4095;48.942;9.104;2024-01-27T03:45:38;3.90;99.90
8105;DHT22;4095;48.942;9.104;2024-01-27T03:48:04;3.90;99.90
8105;DHT22;4095;48.942;9.104;2024-01-27T03:50:30;3.80;99.90
8105;DHT22;4095;48.942;9.104;2024-01-27T03:52:55;3.70;99.90
8105;DHT22;4095;48.942;9.104;2024-01-27T03:55:21;3.70;99.90
8105;DHT22;4095;48.942;9.104;2024-01-27T03:57:46;3.50;99.90
8105;DHT22;4095;48.942;9.104;2024-01-27T04:00:12;3.60;99.90
8105;DHT22;4095;48.942;9.104;2024-01-27T04:02:38;3.60;99.90
8105;DHT22;4095;48.942;9.104;2024-01-27T04:05:05;3.60;99.90
8105;DHT22;4095;48.942;9.104;2024-01-27T04:07:30;3.70;99.90
8105;DHT22;4095;48.942;9.104;2024-01-27T04:09:56;3.60;99.90
8105;DHT22;4095;48.942;9.104;2024-01-27T04:12:21;3.70;99.90
8105;DHT22;4095;48.942;9.104;2024-01-27T04:14:47;3.60;99.90
8105;DHT22;4095;48.942;9.104;2024-01-27T04:17:13;3.70;99.90
8105;DHT22;4095;48.942;9.104;2024-01-27T04:19:38;3.70;99.90
8105;DHT22;4095;48.942;9.104;2024-01-27T04:22:04;3.70;99.90
8105;DHT22;4095;48.942;9.104;2024-01-27T04:24:29;3.70;99.90
8105;DHT22;4095;48.942;9.104;2024-01-27T04:26:55;3.70;99.90
8105;DHT22;4095;48.942;9.104;2024-01-27T04:29:20;3.60;99.90
8105;DHT22;4095;48.942;9.104;2024-01-27T04:31:46;3.60;99.90
8105;DHT22;4095;48.942;9.104;2024-01-27T04:34:11;3.60;99.90
8105;DHT22;4095;48.942;9.104;2024-01-27T04:36:37;3.60;99.90
8105;DHT22;4095;48.942;9.104;2024-01-27T04:39:03;3.60;99.90
8105;DHT22;4095;48.942;9.104;2024-01-27T04:41:29;3.70;99.90
8105;DHT22;4095;48.942;9.104;2024-01-27T04:43:55;3.60;99.90
8105;DHT22;4095;48.942;9.104;2024-01-27T04:46:21;3.60;99.90
8105;DHT22;4095;48.942;9.104;2024-01-27T04:48:48;3.60;99.90
8105;DHT22;4095;48.942;9.104;2024-01-27T04:51:13;3.60;99.90
8105;DHT22;4095;48.942;9.104;2024-01-27T04:53:39;3.50;99.90
8105;DHT22;4095;48.942;9.104;2024-01-27T04:56:05;3.50;99.90
8105;DHT22;4095;48.942;9.104;2024-01-27T04:58:33;3.50;99.90
8105;DHT22;4095;48.942;9.104;2024-01-27T05:01:00;3.50;99.90
8105;DHT22;4095;48.942;9.104;2024-01-27T05:03:25;3.50;99.90
8105;DHT22;4095;48.942;9.104;2024-01-27T05:05:51;3.50;99.90
8105;DHT22;4095;48.942;9.104;2024-01-27T05:08:16;3.50;99.90
8105;DHT22;4095;48.942;9.104;2024-01-27T05:10:42;3.50;99.90
8105;DHT22;4095;48.942;9.104;2024-01-27T05:13:07;3.50;99.90
8105;DHT22;4095;48.942;9.104;2024-01-27T05:15:33;3.50;99.90
8105;DHT22;4095;48.942;9.104;2024-01-27T05:17:58;3.50;99.90
8105;DHT22;4095;48.942;9.104;2024-01-27T05:20:24;3.40;99.90
8105;DHT22;4095;48.942;9.104;2024-01-27T05:22:49;3.40;99.90
8105;DHT22;4095;48.942;9.104;2024-01-27T05:25:15;3.40;99.90
8105;DHT22;4095;48.942;9.104;2024-01-27T05:27:42;3.40;99.90
8105;DHT22;4095;48.942;9.104;2024-01-27T05:30:08;3.40;99.90
8105;DHT22;4095;48.942;9.104;2024-01-27T05:32:33;3.40;99.90
8105;DHT22;4095;48.942;9.104;2024-01-27T05:34:59;3.30;99.90
8105;DHT22;4095;48.942;9.104;2024-01-27T05:37:24;3.30;99.90
8105;DHT22;4095;48.942;9.104;2024-01-27T05:39:50;3.30;99.90
8105;DHT22;4095;48.942;9.104;2024-01-27T05:42:15;3.30;99.90
8105;DHT22;4095;48.942;9.104;2024-01-27T05:44:41;3.30;99.90
8105;DHT22;4095;48.942;9.104;2024-01-27T05:47:07;3.30;99.90
8105;DHT22;4095;48.942;9.104;2024-01-27T05:49:33;3.20;99.90
8105;DHT22;4095;48.942;9.104;2024-01-27T05:51:58;3.20;99.90
8105;DHT22;4095;48.942;9.104;2024-01-27T05:54:24;3.20;99.90
8105;DHT22;4095;48.942;9.104;2024-01-27T05:56:50;3.20;99.90
8105;DHT22;4095;48.942;9.104;2024-01-27T05:59:16;3.20;99.90
8105;DHT22;4095;48.942;9.104;2024-01-27T06:01:41;3.20;99.90
8105;DHT22;4095;48.942;9.104;2024-01-27T06:04:08;3.10;99.90
8105;DHT22;4095;48.942;9.104;2024-01-27T06:06:34;3.20;99.90
8105;DHT22;4095;48.942;9.104;2024-01-27T06:08:59;3.10;99.90
8105;DHT22;4095;48.942;9.104;2024-01-27T06:11:25;3.20;99.90
8105;DHT22;4095;48.942;9.104;2024-01-27T06:13:51;3.10;99.90
8105;DHT22;4095;48.942;9.104;2024-01-27T06:16:20;3.10;99.90
8105;DHT22;4095;48.942;9.104;2024-01-27T06:18:45;3.10;99.90
8105;DHT22;4095;48.942;9.104;2024-01-27T06:21:11;3.00;99.90
8105;DHT22;4095;48.942;9.104;2024-01-27T06:23:36;2.90;99.90
8105;DHT22;4095;48.942;9.104;2024-01-27T06:26:06;2.80;99.90
8105;DHT22;4095;48.942;9.104;2024-01-27T06:28:32;2.80;99.90
8105;DHT22;4095;48.942;9.104;2024-01-27T06:30:58;2.80;99.90
8105;DHT22;4095;48.942;9.104;2024-01-27T06:33:23;2.90;99.90
8105;DHT22;4095;48.942;9.104;2024-01-27T06:35:49;2.90;99.90
8105;DHT22;4095;48.942;9.104;2024-01-27T06:38:14;2.90;99.90
8105;DHT22;4095;48.942;9.104;2024-01-27T06:40:40;2.90;99.90
8105;DHT22;4095;48.942;9.104;2024-01-27T06:43:06;2.90;99.90
8105;DHT22;4095;48.942;9.104;2024-01-27T06:45:31;2.90;99.90
8105;DHT22;4095;48.942;9.104;2024-01-27T06:47:57;2.80;99.90
8105;DHT22;4095;48.942;9.104;2024-01-27T06:50:22;2.70;99.90
8105;DHT22;4095;48.942;9.104;2024-01-27T06:52:48;2.70;99.90
8105;DHT22;4095;48.942;9.104;2024-01-27T06:55:14;2.80;99.90
8105;DHT22;4095;48.942;9.104;2024-01-27T06:57:39;2.80;99.90
8105;DHT22;4095;48.942;9.104;2024-01-27T07:00:06;2.80;99.90
8105;DHT22;4095;48.942;9.104;2024-01-27T07:02:32;2.80;99.90
8105;DHT22;4095;48.942;9.104;2024-01-27T07:04:57;2.80;99.90
8105;DHT22;4095;48.942;9.104;2024-01-27T07:07:26;2.80;99.90
8105;DHT22;4095;48.942;9.104;2024-01-27T07:09:55;2.90;99.90
8105;DHT22;4095;48.942;9.104;2024-01-27T07:12:21;2.80;99.90
8105;DHT22;4095;48.942;9.104;2024-01-27T07:14:47;2.80;99.90
8105;DHT22;4095;48.942;9.104;2024-01-27T07:17:12;2.80;99.90
8105;DHT22;4095;48.942;9.104;2024-01-27T07:19:38;2.70;99.90
8105;DHT22;4095;48.942;9.104;2024-01-27T07:22:04;2.80;99.90
8105;DHT22;4095;48.942;9.104;2024-01-27T07:24:30;2.80;99.90
8105;DHT22;4095;48.942;9.104;2024-01-27T07:26:55;2.80;99.90
8105;DHT22;4095;48.942;9.104;2024-01-27T07:29:21;2.70;99.90
8105;DHT22;4095;48.942;9.104;2024-01-27T07:31:47;2.70;99.90
8105;DHT22;4095;48.942;9.104;2024-01-27T07:34:13;2.70;99.90
8105;DHT22;4095;48.942;9.104;2024-01-27T07:36:38;2.70;99.90
8105;DHT22;4095;48.942;9.104;2024-01-27T07:39:04;2.80;99.90
8105;DHT22;4095;48.942;9.104;2024-01-27T07:41:30;2.80;99.90
8105;DHT22;4095;48.942;9.104;2024-01-27T07:43:56;2.90;99.90
8105;DHT22;4095;48.942;9.104;2024-01-27T07:46:21;2.90;99.90
8105;DHT22;4095;48.942;9.104;2024-01-27T07:48:48;3.00;99.90
8105;DHT22;4095;48.942;9.104;2024-01-27T07:51:15;3.10;99.90
8105;DHT22;4095;48.942;9.104;2024-01-27T07:53:41;3.20;99.90
8105;DHT22;4095;48.942;9.104;2024-01-27T07:56:07;3.10;99.90
8105;DHT22;4095;48.942;9.104;2024-01-27T07:58:33;3.10;99.90
8105;DHT22;4095;48.942;9.104;2024-01-27T08:00:59;3.00;99.90
8105;DHT22;4095;48.942;9.104;2024-01-27T08:03:24;3.00;99.90
8105;DHT22;4095;48.942;9.104;2024-01-27T08:05:50;3.00;99.90
8105;DHT22;4095;48.942;9.104;2024-01-27T08:08:15;3.10;99.90
8105;DHT22;4095;48.942;9.104;2024-01-27T08:10:41;3.20;99.90
8105;DHT22;4095;48.942;9.104;2024-01-27T08:13:06;3.40;99.90
8105;DHT22;4095;48.942;9.104;2024-01-27T08:15:33;3.40;99.90
8105;DHT22;4095;48.942;9.104;2024-01-27T08:17:58;3.50;99.90
8105;DHT22;4095;48.942;9.104;2024-01-27T08:20:24;3.60;99.90
8105;DHT22;4095;48.942;9.104;2024-01-27T08:22:49;3.70;99.90
8105;DHT22;4095;48.942;9.104;2024-01-27T08:25:17;3.70;99.90
8105;DHT22;4095;48.942;9.104;2024-01-27T08:27:42;3.80;99.90
8105;DHT22;4095;48.942;9.104;2024-01-27T08:30:08;3.80;99.90
8105;DHT22;4095;48.942;9.104;2024-01-27T08:32:35;3.80;99.90
8105;DHT22;4095;48.942;9.104;2024-01-27T08:35:00;3.80;99.90
8105;DHT22;4095;48.942;9.104;2024-01-27T08:37:26;4.00;99.90
8105;DHT22;4095;48.942;9.104;2024-01-27T08:39:51;4.00;99.90
8105;DHT22;4095;48.942;9.104;2024-01-27T08:42:17;4.10;99.90
8105;DHT22;4095;48.942;9.104;2024-01-27T08:44:42;4.20;99.90
8105;DHT22;4095;48.942;9.104;2024-01-27T08:47:08;4.30;99.90
8105;DHT22;4095;48.942;9.104;2024-01-27T08:49:33;4.40;99.90
8105;DHT22;4095;48.942;9.104;2024-01-27T08:51:59;4.50;99.90
8105;DHT22;4095;48.942;9.104;2024-01-27T08:54:24;4.60;99.90
8105;DHT22;4095;48.942;9.104;2024-01-27T08:56:50;4.80;99.90
8105;DHT22;4095;48.942;9.104;2024-01-27T08:59:16;4.90;99.90
8105;DHT22;4095;48.942;9.104;2024-01-27T09:01:41;5.00;99.90
8105;DHT22;4095;48.942;9.104;2024-01-27T09:04:08;5.20;99.90
8105;DHT22;4095;48.942;9.104;2024-01-27T09:06:34;5.40;99.90
8105;DHT22;4095;48.942;9.104;2024-01-27T09:09:00;5.30;99.90
8105;DHT22;4095;48.942;9.104;2024-01-27T09:11:26;5.50;99.90
8105;DHT22;4095;48.942;9.104;2024-01-27T09:13:55;5.60;99.90
8105;DHT22;4095;48.942;9.104;2024-01-27T09:16:21;5.70;99.90
8105;DHT22;4095;48.942;9.104;2024-01-27T09:18:46;5.80;99.90
8105;DHT22;4095;48.942;9.104;2024-01-27T09:21:12;5.80;99.90
8105;DHT22;4095;48.942;9.104;2024-01-27T09:23:39;6.00;99.90
8105;DHT22;4095;48.942;9.104;2024-01-27T09:26:05;6.10;99.90
8105;DHT22;4095;48.942;9.104;2024-01-27T09:28:30;6.20;99.90
8105;DHT22;4095;48.942;9.104;2024-01-27T09:30:56;6.30;99.90
8105;DHT22;4095;48.942;9.104;2024-01-27T09:33:21;6.40;99.90
8105;DHT22;4095;48.942;9.104;2024-01-27T09:35:49;6.50;99.90
8105;DHT22;4095;48.942;9.104;2024-01-27T09:38:14;6.70;99.90
8105;DHT22;4095;48.942;9.104;2024-01-27T09:40:40;6.90;99.90
8105;DHT22;4095;48.942;9.104;2024-01-27T09:43:06;7.00;99.90
8105;DHT22;4095;48.942;9.104;2024-01-27T09:45:35;7.20;99.90
8105;DHT22;4095;48.942;9.104;2024-01-27T09:48:03;7.30;99.90
8105;DHT22;4095;48.942;9.104;2024-01-27T09:50:30;7.40;99.90
8105;DHT22;4095;48.942;9.104;2024-01-27T09:52:56;7.60;99.90
8105;DHT22;4095;48.942;9.104;2024-01-27T09:55:21;7.70;99.90
8105;DHT22;4095;48.942;9.104;2024-01-27T09:57:48;7.80;99.90
8105;DHT22;4095;48.942;9.104;2024-01-27T10:00:14;8.00;99.90
8105;DHT22;4095;48.942;9.104;2024-01-27T10:02:42;8.20;99.90
8105;DHT22;4095;48.942;9.104;2024-01-27T10:05:10;8.40;99.90
8105;DHT22;4095;48.942;9.104;2024-01-27T10:07:37;8.60;99.90
8105;DHT22;4095;48.942;9.104;2024-01-27T10:10:04;8.90;99.90
8105;DHT22;4095;48.942;9.104;2024-01-27T10:12:31;9.20;99.90
8105;DHT22;4095;48.942;9.104;2024-01-27T10:14:57;9.40;99.90
8105;DHT22;4095;48.942;9.104;2024-01-27T10:17:24;9.70;99.90
8105;DHT22;4095;48.942;9.104;2024-01-27T10:20:05;10.10;99.90
8105;DHT22;4095;48.942;9.104;2024-01-27T10:22:40;10.60;99.90
8105;DHT22;4095;48.942;9.104;2024-01-27T10:25:06;11.00;99.90
8105;DHT22;4095;48.942;9.104;2024-01-27T10:27:32;11.50;99.90
8105;DHT22;4095;48.942;9.104;2024-01-27T10:29:58;12.00;99.90
8105;DHT22;4095;48.942;9.104;2024-01-27T10:32:23;12.50;99.00
8105;DHT22;4095;48.942;9.104;2024-01-27T10:35:11;13.00;98.80
8105;DHT22;4095;48.942;9.104;2024-01-27T10:37:36;13.70;98.10
8105;DHT22;4095;48.942;9.104;2024-01-27T10:40:06;14.90;97.40
8105;DHT22;4095;48.942;9.104;2024-01-27T10:42:36;15.90;96.10
8105;DHT22;4095;48.942;9.104;2024-01-27T10:45:03;16.90;94.70
8105;DHT22;4095;48.942;9.104;2024-01-27T10:47:31;17.90;93.60
8105;DHT22;4095;48.942;9.104;2024-01-27T10:49:58;18.90;93.30
8105;DHT22;4095;48.942;9.104;2024-01-27T10:52:28;19.60;91.70
8105;DHT22;4095;48.942;9.104;2024-01-27T10:55:01;20.30;90.70
8105;DHT22;4095;48.942;9.104;2024-01-27T10:57:29;21.20;89.70
8105;DHT22;4095;48.942;9.104;2024-01-27T10:59:56;21.70;87.30
8105;DHT22;4095;48.942;9.104;2024-01-27T11:02:22;22.00;87.10
8105;DHT22;4095;48.942;9.104;2024-01-27T11:04:48;22.50;84.80
8105;DHT22;4095;48.942;9.104;2024-01-27T11:07:15;23.00;84.10
8105;DHT22;4095;48.942;9.104;2024-01-27T11:09:42;23.40;83.00
8105;DHT22;4095;48.942;9.104;2024-01-27T11:12:09;23.60;80.40
8105;DHT22;4095;48.942;9.104;2024-01-27T11:14:35;23.90;79.80
8105;DHT22;4095;48.942;9.104;2024-01-27T11:17:00;24.10;78.10
8105;DHT22;4095;48.942;9.104;2024-01-27T11:19:26;24.40;78.80
8105;DHT22;4095;48.942;9.104;2024-01-27T11:22:02;24.40;77.30
8105;DHT22;4095;48.942;9.104;2024-01-27T11:24:28;24.60;76.70
8105;DHT22;4095;48.942;9.104;2024-01-27T11:29:26;24.60;76.60
8105;DHT22;4095;48.942;9.104;2024-01-27T11:31:55;24.70;75.70
8105;DHT22;4095;48.942;9.104;2024-01-27T11:34:21;24.70;74.50
8105;DHT22;4095;48.942;9.104;2024-01-27T11:36:47;24.80;74.30
8105;DHT22;4095;48.942;9.104;2024-01-27T11:39:29;24.80;74.00
8105;DHT22;4095;48.942;9.104;2024-01-27T11:42:09;24.90;73.70
8105;DHT22;4095;48.942;9.104;2024-01-27T11:44:38;25.20;72.60
8105;DHT22;4095;48.942;9.104;2024-01-27T11:47:05;25.40;72.70
8105;DHT22;4095;48.942;9.104;2024-01-27T11:49:31;25.50;71.00
8105;DHT22;4095;48.942;9.104;2024-01-27T11:51:58;25.40;68.80
8105;DHT22;4095;48.942;9.104;2024-01-27T11:54:23;25.20;70.60
8105;DHT22;4095;48.942;9.104;2024-01-27T11:56:49;25.30;69.00
8105;DHT22;4095;48.942;9.104;2024-01-27T11:59:15;25.40;68.60
8105;DHT22;4095;48.942;9.104;2024-01-27T12:01:40;25.40;67.90
8105;DHT22;4095;48.942;9.104;2024-01-27T12:04:06;25.60;68.00
8105;DHT22;4095;48.942;9.104;2024-01-27T12:06:32;25.90;67.10
8105;DHT22;4095;48.942;9.104;2024-01-27T12:08:58;26.00;67.10
8105;DHT22;4095;48.942;9.104;2024-01-27T12:11:24;25.80;65.40
8105;DHT22;4095;48.942;9.104;2024-01-27T12:13:50;25.70;66.20
8105;DHT22;4095;48.942;9.104;2024-01-27T12:16:16;25.50;67.90
8105;DHT22;4095;48.942;9.104;2024-01-27T12:18:43;25.40;66.90
8105;DHT22;4095;48.942;9.104;2024-01-27T12:21:09;25.50;68.40
8105;DHT22;4095;48.942;9.104;2024-01-27T12:23:35;25.30;67.70
8105;DHT22;4095;48.942;9.104;2024-01-27T12:26:00;25.10;67.50
8105;DHT22;4095;48.942;9.104;2024-01-27T12:28:27;25.00;67.40
8105;DHT22;4095;48.942;9.104;2024-01-27T12:30:53;24.80;66.80
8105;DHT22;4095;48.942;9.104;2024-01-27T12:33:19;24.80;67.60
8105;DHT22;4095;48.942;9.104;2024-01-27T12:35:48;25.00;67.10
8105;DHT22;4095;48.942;9.104;2024-01-27T12:38:14;25.00;68.10
8105;DHT22;4095;48.942;9.104;2024-01-27T12:40:40;24.90;68.60
8105;DHT22;4095;48.942;9.104;2024-01-27T12:43:05;24.90;68.20
8105;DHT22;4095;48.942;9.104;2024-01-27T12:45:31;25.00;66.80
8105;DHT22;4095;48.942;9.104;2024-01-27T12:48:00;24.80;66.00
8105;DHT22;4095;48.942;9.104;2024-01-27T12:50:27;24.50;66.80
8105;DHT22;4095;48.942;9.104;2024-01-27T12:52:52;24.40;67.30
8105;DHT22;4095;48.942;9.104;2024-01-27T12:55:19;24.30;68.50
8105;DHT22;4095;48.942;9.104;2024-01-27T12:57:46;23.90;67.60
8105;DHT22;4095;48.942;9.104;2024-01-27T13:00:12;23.40;67.40
8105;DHT22;4095;48.942;9.104;2024-01-27T13:02:39;22.60;69.40
8105;DHT22;4095;48.942;9.104;2024-01-27T13:05:05;21.70;69.40
8105;DHT22;4095;48.942;9.104;2024-01-27T13:07:30;21.00;71.30
8105;DHT22;4095;48.942;9.104;2024-01-27T13:09:56;20.50;70.90
8105;DHT22;4095;48.942;9.104;2024-01-27T13:12:21;19.90;71.50
8105;DHT22;4095;48.942;9.104;2024-01-27T13:14:47;19.30;72.10
8105;DHT22;4095;48.942;9.104;2024-01-27T13:17:14;18.80;72.40
8105;DHT22;4095;48.942;9.104;2024-01-27T13:19:40;18.30;73.80
8105;DHT22;4095;48.942;9.104;2024-01-27T13:22:06;17.70;75.90
8105;DHT22;4095;48.942;9.104;2024-01-27T13:24:32;17.20;77.50
8105;DHT22;4095;48.942;9.104;2024-01-27T13:26:58;16.60;78.30
8105;DHT22;4095;48.942;9.104;2024-01-27T13:29:23;16.10;80.40
8105;DHT22;4095;48.942;9.104;2024-01-27T13:31:49;15.70;82.00
8105;DHT22;4095;48.942;9.104;2024-01-27T13:34:15;15.30;83.30
8105;DHT22;4095;48.942;9.104;2024-01-27T13:36:41;15.00;82.60
8105;DHT22;4095;48.942;9.104;2024-01-27T13:39:06;14.70;85.80
8105;DHT22;4095;48.942;9.104;2024-01-27T13:41:32;14.50;85.40
8105;DHT22;4095;48.942;9.104;2024-01-27T13:43:57;14.30;86.70
8105;DHT22;4095;48.942;9.104;2024-01-27T13:46:23;14.20;88.80
8105;DHT22;4095;48.942;9.104;2024-01-27T13:48:49;14.10;89.00
8105;DHT22;4095;48.942;9.104;2024-01-27T13:51:15;14.10;90.00
8105;DHT22;4095;48.942;9.104;2024-01-27T13:53:40;14.00;89.30
8105;DHT22;4095;48.942;9.104;2024-01-27T13:56:06;14.10;90.00
8105;DHT22;4095;48.942;9.104;2024-01-27T13:58:32;14.00;90.00
8105;DHT22;4095;48.942;9.104;2024-01-27T14:00:58;14.20;88.90
8105;DHT22;4095;48.942;9.104;2024-01-27T14:03:23;14.40;89.70
8105;DHT22;4095;48.942;9.104;2024-01-27T14:05:49;14.60;88.60
8105;DHT22;4095;48.942;9.104;2024-01-27T14:08:15;14.80;88.70
8105;DHT22;4095;48.942;9.104;2024-01-27T14:10:43;14.90;88.40
8105;DHT22;4095;48.942;9.104;2024-01-27T14:13:09;14.90;87.70
8105;DHT22;4095;48.942;9.104;2024-01-27T14:15:36;14.90;89.60
8105;DHT22;4095;48.942;9.104;2024-01-27T14:18:02;14.90;88.10
8105;DHT22;4095;48.942;9.104;2024-01-27T14:20:29;14.90;89.50
8105;DHT22;4095;48.942;9.104;2024-01-27T14:22:55;14.80;90.00
8105;DHT22;4095;48.942;9.104;2024-01-27T14:25:21;14.70;90.20
8105;DHT22;4095;48.942;9.104;2024-01-27T14:27:46;14.60;90.20
8105;DHT22;4095;48.942;9.104;2024-01-27T14:30:12;14.50;90.30
8105;DHT22;4095;48.942;9.104;2024-01-27T14:32:38;14.30;90.50
8105;DHT22;4095;48.942;9.104;2024-01-27T14:35:04;14.20;90.60
8105;DHT22;4095;48.942;9.104;2024-01-27T14:37:32;14.10;90.70
8105;DHT22;4095;48.942;9.104;2024-01-27T14:39:57;14.00;91.30
8105;DHT22;4095;48.942;9.104;2024-01-27T14:42:23;14.00;91.00
8105;DHT22;4095;48.942;9.104;2024-01-27T14:44:48;14.20;90.80
8105;DHT22;4095;48.942;9.104;2024-01-27T14:47:18;14.20;90.60
8105;DHT22;4095;48.942;9.104;2024-01-27T14:49:45;14.20;90.40
8105;DHT22;4095;48.942;9.104;2024-01-27T14:52:11;14.30;90.80
8105;DHT22;4095;48.942;9.104;2024-01-27T14:54:37;14.20;90.80
8105;DHT22;4095;48.942;9.104;2024-01-27T14:57:04;14.10;90.90
8105;DHT22;4095;48.942;9.104;2024-01-27T14:59:31;13.90;91.20
8105;DHT22;4095;48.942;9.104;2024-01-27T15:01:57;13.80;91.50
8105;DHT22;4095;48.942;9.104;2024-01-27T15:04:25;13.60;92.00
8105;DHT22;4095;48.942;9.104;2024-01-27T15:06:55;13.40;92.40
8105;DHT22;4095;48.942;9.104;2024-01-27T15:09:21;13.20;92.70
8105;DHT22;4095;48.942;9.104;2024-01-27T15:11:47;13.00;92.80
8105;DHT22;4095;48.942;9.104;2024-01-27T15:14:13;12.70;93.00
8105;DHT22;4095;48.942;9.104;2024-01-27T15:16:39;12.50;93.50
8105;DHT22;4095;48.942;9.104;2024-01-27T15:19:04;12.30;93.60
8105;DHT22;4095;48.942;9.104;2024-01-27T15:21:30;12.20;94.20
8105;DHT22;4095;48.942;9.104;2024-01-27T15:23:56;12.00;94.50
8105;DHT22;4095;48.942;9.104;2024-01-27T15:26:22;11.80;94.80
8105;DHT22;4095;48.942;9.104;2024-01-27T15:28:48;11.70;95.30
8105;DHT22;4095;48.942;9.104;2024-01-27T15:31:13;11.60;95.30
8105;DHT22;4095;48.942;9.104;2024-01-27T15:33:39;11.50;95.70
8105;DHT22;4095;48.942;9.104;2024-01-27T15:36:05;11.30;95.80
8105;DHT22;4095;48.942;9.104;2024-01-27T15:38:30;11.10;96.10
8105;DHT22;4095;48.942;9.104;2024-01-27T15:40:56;10.90;96.50
8105;DHT22;4095;48.942;9.104;2024-01-27T15:43:21;10.80;97.10
8105;DHT22;4095;48.942;9.104;2024-01-27T15:45:47;10.70;97.30
8105;DHT22;4095;48.942;9.104;2024-01-27T15:48:13;10.60;97.20
8105;DHT22;4095;48.942;9.104;2024-01-27T15:50:38;10.50;97.30
8105;DHT22;4095;48.942;9.104;2024-01-27T15:53:04;10.40;97.60
8105;DHT22;4095;48.942;9.104;2024-01-27T15:55:30;10.30;97.80
8105;DHT22;4095;48.942;9.104;2024-01-27T15:57:57;10.20;97.90
8105;DHT22;4095;48.942;9.104;2024-01-27T16:00:23;10.00;98.20
8105;DHT22;4095;48.942;9.104;2024-01-27T16:02:48;9.80;99.10
8105;DHT22;4095;48.942;9.104;2024-01-27T16:05:14;9.80;99.30
8105;DHT22;4095;48.942;9.104;2024-01-27T16:07:40;9.70;99.30